Time;durP1;ratioP1;P1;durP2;ratioP2;P2;SDS_P1;SDS_P2;PMS_P1;PMS_P2;Temp;Humidity;BMP_temperature;BMP_pressure;BME280_temperature;BME280_humidity;BME280_pressure;Samples;Min_cycle;Max_cycle;Signal;HPM_P1;HPM_P2
2023/07/02 00:00:08;;;;;;;14.30;5.20;;;;;;;15.46;100.00;100434.19;4921457;28;21300;-81
2023/07/02 00:02:37;;;;;;;15.35;5.18;;;;;;;15.40;100.00;100439.66;4945043;29;20520;-80
2023/07/02 00:05:06;;;;;;;11.95;5.00;;;;;;;15.36;100.00;100440.63;4890999;28;20058;-81
2023/07/02 00:07:36;;;;;;;12.80;5.55;;;;;;;15.30;100.00;100440.78;4965984;28;20043;-80
2023/07/02 00:10:05;;;;;;;13.45;5.60;;;;;;;15.27;100.00;100440.84;4938162;28;20058;-80
2023/07/02 00:12:32;;;;;;;17.15;6.60;;;;;;;15.23;100.00;100444.47;4920918;28;20395;-79
2023/07/02 00:15:00;;;;;;;15.32;5.75;;;;;;;15.17;100.00;100437.53;4932709;29;20498;-80
2023/07/02 00:17:28;;;;;;;17.63;5.13;;;;;;;15.13;100.00;100441.16;4944312;28;20603;-81
2023/07/02 00:19:56;;;;;;;16.60;5.90;;;;;;;15.10;100.00;100444.72;4947887;29;20043;-80
2023/07/02 00:22:23;;;;;;;12.55;5.28;;;;;;;15.05;100.00;100437.78;4901544;28;20046;-81
2023/07/02 00:24:51;;;;;;;12.80;5.65;;;;;;;14.99;100.00;100444.13;4946254;29;20395;-80
2023/07/02 00:27:19;;;;;;;15.77;6.07;;;;;;;14.94;100.00;100444.22;4940221;28;20058;-79
2023/07/02 00:29:46;;;;;;;15.32;5.93;;;;;;;14.89;100.00;100435.47;4922303;28;20055;-80
2023/07/02 00:32:14;;;;;;;16.65;5.72;;;;;;;14.86;100.00;100434.66;4940893;28;20882;-81
2023/07/02 00:34:41;;;;;;;18.70;6.60;;;;;;;14.82;100.00;100426.78;4949091;28;20048;-79
2023/07/02 00:37:08;;;;;;;14.80;6.35;;;;;;;14.78;100.00;100433.06;4923701;28;20043;-80
2023/07/02 00:39:36;;;;;;;13.52;6.25;;;;;;;14.74;100.00;100441.09;4948498;29;20500;-79
2023/07/02 00:42:04;;;;;;;15.75;6.32;;;;;;;14.69;100.00;100442.94;4940158;28;20518;-79
2023/07/02 00:44:32;;;;;;;11.90;6.55;;;;;;;14.65;100.00;100438.63;4933694;28;20509;-80
2023/07/02 00:46:59;;;;;;;20.05;6.72;;;;;;;14.58;100.00;100433.44;4912388;28;20065;-81
2023/07/02 00:49:27;;;;;;;13.57;7.00;;;;;;;14.53;100.00;100445.88;4935450;29;20063;-80
2023/07/02 00:51:55;;;;;;;18.05;5.63;;;;;;;14.49;100.00;100444.19;4922911;28;20046;-80
2023/07/02 00:54:22;;;;;;;26.20;7.22;;;;;;;14.46;100.00;100444.28;4942683;28;20054;-79
2023/07/02 00:56:50;;;;;;;19.20;5.57;;;;;;;14.42;100.00;100443.47;4950128;28;20051;-80
2023/07/02 00:59:18;;;;;;;14.20;7.43;;;;;;;14.37;100.00;100445.31;4936348;28;20725;-80
2023/07/02 01:01:49;;;;;;;16.83;6.82;;;;;;;14.34;100.00;100440.06;4937565;28;20518;-80
2023/07/02 01:04:19;;;;;;;16.63;6.25;;;;;;;14.31;100.00;100437.50;4940498;28;20054;-80
2023/07/02 01:06:47;;;;;;;19.15;7.55;;;;;;;14.29;100.00;100434.00;4920567;28;20051;-79
2023/07/02 01:09:15;;;;;;;18.23;7.18;;;;;;;14.27;100.00;100440.19;4894740;29;20063;-80
2023/07/02 01:11:50;;;;;;;25.67;8.23;;;;;;;14.24;100.00;100438.50;4948240;29;20066;-79
2023/07/02 01:14:36;;;;;;;22.38;7.20;;;;;;;14.21;100.00;100433.25;4940246;28;20411;-79
2023/07/02 01:17:05;;;;;;;23.35;7.28;;;;;;;14.19;100.00;100435.91;4933767;28;20051;-79
2023/07/02 01:19:51;;;;;;;21.40;7.28;;;;;;;14.19;100.00;100425.31;4939701;28;20055;-80
2023/07/02 01:22:24;;;;;;;17.20;6.38;;;;;;;14.16;100.00;100427.19;4907571;28;28509;-80
2023/07/02 01:24:52;;;;;;;16.35;7.45;;;;;;;14.14;100.00;100432.50;4963514;28;20058;-80
2023/07/02 01:27:21;;;;;;;16.40;6.50;;;;;;;14.12;100.00;100438.69;4943038;29;20080;-80
2023/07/02 01:29:52;;;;;;;25.38;7.70;;;;;;;14.11;100.00;100426.38;4975697;28;20038;-80
2023/07/02 01:32:21;;;;;;;21.30;8.10;;;;;;;14.10;100.00;100424.63;4948092;28;20063;-79
2023/07/02 01:34:53;;;;;;;22.77;7.38;;;;;;;14.10;100.00;100432.56;4949802;28;20054;-81
2023/07/02 01:37:21;;;;;;;21.15;8.05;;;;;;;14.08;100.00;100421.13;4947545;28;20062;-80
2023/07/02 01:39:49;;;;;;;22.92;7.10;;;;;;;14.08;100.00;100424.63;4909281;28;20534;-80
2023/07/02 01:42:18;;;;;;;25.13;7.57;;;;;;;14.07;100.00;100430.00;4946690;29;20055;-80
2023/07/02 01:44:48;;;;;;;15.98;7.18;;;;;;;14.04;100.00;100425.59;4946635;28;20047;-79
2023/07/02 01:47:16;;;;;;;19.02;7.57;;;;;;;14.01;100.00;100420.38;4952495;28;20051;-79
2023/07/02 01:49:44;;;;;;;19.15;8.00;;;;;;;13.99;100.00;100411.59;4962070;28;20042;-80
2023/07/02 01:52:11;;;;;;;24.38;8.73;;;;;;;13.97;100.00;100426.59;4931641;29;20394;-80
2023/07/02 01:54:39;;;;;;;18.63;7.38;;;;;;;13.96;100.00;100423.09;4907097;28;20055;-79
2023/07/02 01:57:09;;;;;;;26.75;8.70;;;;;;;13.92;100.00;100421.41;4961738;28;20035;-81
2023/07/02 01:59:36;;;;;;;22.38;8.02;;;;;;;13.91;100.00;100429.38;4963539;28;20051;-81
2023/07/02 02:02:04;;;;;;;22.25;7.82;;;;;;;13.89;100.00;100425.88;4934523;28;20502;-79
2023/07/02 02:04:34;;;;;;;19.65;7.72;;;;;;;13.87;100.00;100428.53;4964466;28;20244;-79
2023/07/02 02:07:01;;;;;;;27.80;7.78;;;;;;;13.86;100.00;100425.94;4960822;28;20052;-79
2023/07/02 02:09:32;;;;;;;27.30;8.65;;;;;;;13.86;100.00;100433.88;4892442;29;20078;-80
2023/07/02 02:11:59;;;;;;;22.15;8.48;;;;;;;13.84;100.00;100434.78;4930433;29;20062;-80
2023/07/02 02:14:28;;;;;;;25.52;8.13;;;;;;;13.83;100.00;100434.78;4948320;29;20063;-80
2023/07/02 02:16:57;;;;;;;33.50;9.50;;;;;;;13.80;100.00;100434.88;4953488;28;20055;-79
2023/07/02 02:19:28;;;;;;;19.30;7.25;;;;;;;13.80;100.00;100440.16;4936193;29;20054;-80
2023/07/02 02:21:55;;;;;;;26.55;8.23;;;;;;;13.77;100.00;100435.78;4945241;28;20040;-80
2023/07/02 02:24:22;;;;;;;26.52;8.05;;;;;;;13.76;100.00;100430.50;4917724;28;20059;-79
2023/07/02 02:26:50;;;;;;;22.92;9.02;;;;;;;13.76;100.00;100441.09;4902305;29;20530;-80
2023/07/02 02:29:17;;;;;;;23.45;7.63;;;;;;;13.75;100.00;100432.28;4960729;28;20051;-80
2023/07/02 02:31:45;;;;;;;23.92;8.57;;;;;;;13.76;100.00;100441.09;4952966;28;20075;-79
2023/07/02 02:34:12;;;;;;;19.20;8.02;;;;;;;13.75;100.00;100440.22;4924708;29;20047;-80
2023/07/02 02:36:40;;;;;;;22.23;7.78;;;;;;;13.74;100.00;100433.19;4921116;29;20051;-81
2023/07/02 02:39:08;;;;;;;25.60;7.93;;;;;;;13.73;100.00;100430.56;4945463;29;20356;-80
2023/07/02 02:41:35;;;;;;;29.70;7.78;;;;;;;13.74;100.00;100442.88;4906657;28;20043;-79
2023/07/02 02:44:03;;;;;;;28.70;9.10;;;;;;;13.75;100.00;100439.34;4929285;29;20495;-80
2023/07/02 02:46:31;;;;;;;21.48;7.68;;;;;;;13.75;100.00;100445.50;4933190;29;20403;-80
2023/07/02 02:48:58;;;;;;;26.67;8.90;;;;;;;13.75;100.00;100442.88;4954245;28;20058;-80
2023/07/02 02:51:26;;;;;;;21.00;7.68;;;;;;;13.75;100.00;100440.22;4931763;28;20051;-80
2023/07/02 02:53:53;;;;;;;20.23;8.02;;;;;;;13.75;100.00;100442.88;4913106;29;20066;-79
2023/07/02 02:56:21;;;;;;;25.65;9.15;;;;;;;13.76;100.00;100446.38;4911896;28;20051;-79
2023/07/02 02:58:48;;;;;;;22.95;8.00;;;;;;;13.76;100.00;100435.78;4951340;28;20051;-80
2023/07/02 03:01:16;;;;;;;25.90;8.95;;;;;;;13.75;100.00;100445.50;4950474;29;20652;-80
2023/07/02 03:03:47;;;;;;;19.50;8.20;;;;;;;13.73;100.00;100435.84;4949003;28;20059;-79
2023/07/02 03:06:15;;;;;;;20.38;8.68;;;;;;;13.74;100.00;100448.19;4974597;28;20047;-80
2023/07/02 03:08:43;;;;;;;29.05;8.57;;;;;;;13.71;100.00;100437.66;4950149;29;20442;-80
2023/07/02 03:11:10;;;;;;;22.75;8.82;;;;;;;13.70;100.00;100444.72;4907207;28;20051;-81
2023/07/02 03:13:38;;;;;;;20.13;7.45;;;;;;;13.68;100.00;100443.00;4949185;28;20055;-79
2023/07/02 03:16:06;;;;;;;27.85;8.55;;;;;;;13.66;100.00;100440.38;4949420;29;20074;-80
2023/07/02 03:18:34;;;;;;;22.50;9.35;;;;;;;13.65;100.00;100444.78;4952333;29;20039;-80
2023/07/02 03:21:01;;;;;;;17.58;8.43;;;;;;;13.64;100.00;100447.47;4941996;28;20036;-81
2023/07/02 03:23:28;;;;;;;27.90;9.30;;;;;;;13.62;100.00;100447.47;4930518;29;20052;-80
2023/07/02 03:25:56;;;;;;;24.05;7.72;;;;;;;13.61;100.00;100448.41;4957684;28;20054;-79
2023/07/02 03:28:23;;;;;;;22.65;8.35;;;;;;;13.61;100.00;100452.78;4920981;28;20044;-79
2023/07/02 03:30:51;;;;;;;21.77;7.47;;;;;;;13.59;100.00;100444.91;4962346;28;20058;-80
2023/07/02 03:33:19;;;;;;;30.83;8.18;;;;;;;13.59;100.00;100459.88;4950518;29;20055;-80
2023/07/02 03:35:47;;;;;;;24.38;8.73;;;;;;;13.59;100.00;100449.28;4963402;28;20047;-79
2023/07/02 03:38:14;;;;;;;27.13;8.15;;;;;;;13.58;100.00;100448.44;4951977;28;20055;-79
2023/07/02 03:40:43;;;;;;;25.00;9.13;;;;;;;13.57;100.00;100457.28;4934129;29;20447;-81
2023/07/02 03:43:11;;;;;;;18.95;7.95;;;;;;;13.59;100.00;100458.13;4926119;28;27403;-81
2023/07/02 03:45:38;;;;;;;25.80;8.43;;;;;;;13.61;100.00;100451.03;4965093;28;20405;-80
2023/07/02 03:48:05;;;;;;;27.80;8.45;;;;;;;13.62;100.00;100455.41;4947483;29;20054;-79
2023/07/02 03:50:35;;;;;;;24.42;8.25;;;;;;;13.65;100.00;100457.16;4966166;28;20062;-80
2023/07/02 03:53:02;;;;;;;32.45;8.18;;;;;;;13.70;100.00;100451.78;4914926;29;20082;-80
2023/07/02 03:55:31;;;;;;;26.23;8.48;;;;;;;13.74;100.00;100453.47;4981686;28;20058;-79
2023/07/02 03:57:58;;;;;;;28.05;8.32;;;;;;;13.80;100.00;100464.00;4958273;28;20058;-81
2023/07/02 04:00:25;;;;;;;24.17;7.63;;;;;;;13.86;100.00;100470.97;4912252;28;20073;-79
2023/07/02 04:02:53;;;;;;;29.27;8.20;;;;;;;13.89;100.00;100468.25;4937293;28;20074;-79
2023/07/02 04:05:21;;;;;;;25.63;8.55;;;;;;;13.92;100.00;100462.91;4940809;29;20432;-80
2023/07/02 04:07:48;;;;;;;21.60;8.07;;;;;;;13.96;100.00;100465.47;4938434;28;20059;-81
2023/07/02 04:10:15;;;;;;;24.77;7.40;;;;;;;14.03;100.00;100469.75;4943299;28;20043;-79
2023/07/02 04:12:44;;;;;;;26.88;8.02;;;;;;;14.19;100.00;100467.72;4949882;29;20059;-81
2023/07/02 04:15:11;;;;;;;26.70;7.88;;;;;;;14.30;100.00;100472.84;4896955;28;20047;-80
2023/07/02 04:17:39;;;;;;;26.98;8.95;;;;;;;14.48;100.00;100476.03;4959176;28;20051;-81
2023/07/02 04:20:07;;;;;;;22.80;8.02;;;;;;;14.68;100.00;100471.25;4930526;29;20668;-80
2023/07/02 04:22:35;;;;;;;22.65;7.35;;;;;;;15.16;100.00;100471.16;4932142;29;20059;-80
2023/07/02 04:25:03;;;;;;;29.70;8.80;;;;;;;15.64;100.00;100482.50;4940531;28;20039;-80
2023/07/02 04:27:44;;;;;;;22.42;8.30;;;;;;;16.12;100.00;100477.78;4934095;29;20044;-80
2023/07/02 04:30:18;;;;;;;22.65;7.95;;;;;;;16.33;100.00;100481.69;4907139;28;20503;-80
2023/07/02 04:32:46;;;;;;;23.48;6.70;;;;;;;16.22;100.00;100481.09;4948731;29;20062;-82
2023/07/02 04:35:14;;;;;;;23.10;7.75;;;;;;;16.11;100.00;100489.31;4923409;29;20062;-80
2023/07/02 04:37:42;;;;;;;19.80;7.90;;;;;;;16.05;100.00;100488.59;4945756;29;20127;-79
2023/07/02 04:40:10;;;;;;;26.58;7.53;;;;;;;15.93;100.00;100487.97;4933801;28;20043;-80
2023/07/02 04:42:39;;;;;;;20.90;7.38;;;;;;;15.78;100.00;100488.38;4916364;29;20043;-80
2023/07/02 04:45:08;;;;;;;20.00;7.22;;;;;;;15.67;100.00;100495.69;4945809;29;20048;-82
2023/07/02 04:47:35;;;;;;;22.80;6.35;;;;;;;15.72;100.00;100499.13;4912378;28;20055;-80
2023/07/02 04:50:05;;;;;;;23.98;9.32;;;;;;;16.05;100.00;100496.56;4930173;29;20047;-79
2023/07/02 04:52:34;;;;;;;23.30;7.00;;;;;;;16.36;100.00;100491.34;4931345;29;20074;-80
2023/07/02 04:55:03;;;;;;;22.83;7.22;;;;;;;16.29;100.00;100490.63;4935772;28;20054;-80
2023/07/02 04:57:30;;;;;;;18.42;6.93;;;;;;;16.42;100.00;100496.50;4948276;29;20124;-81
2023/07/02 04:59:58;;;;;;;25.75;7.68;;;;;;;16.94;100.00;100494.22;4932401;29;20058;-81
2023/07/02 05:02:26;;;;;;;21.50;7.70;;;;;;;17.50;100.00;100499.66;4913201;28;20503;-80
2023/07/02 05:04:54;;;;;;;18.73;7.28;;;;;;;17.98;100.00;100494.63;4945201;29;20495;-80
2023/07/02 05:07:22;;;;;;;19.00;7.10;;;;;;;18.50;100.00;100488.34;4948876;29;20075;-79
2023/07/02 05:09:51;;;;;;;21.05;7.35;;;;;;;18.99;100.00;100482.19;4957732;28;20051;-81
2023/07/02 05:12:19;;;;;;;18.57;7.53;;;;;;;19.43;100.00;100490.31;4939724;28;20519;-80
2023/07/02 05:14:46;;;;;;;22.90;6.28;;;;;;;19.95;100.00;100492.72;4946958;29;20054;-79
2023/07/02 05:17:14;;;;;;;21.38;7.25;;;;;;;20.45;100.00;100484.34;4888362;28;20056;-81
2023/07/02 05:19:42;;;;;;;20.95;7.22;;;;;;;20.94;100.00;100487.53;4930754;29;20058;-80
2023/07/02 05:22:10;;;;;;;19.38;6.78;;;;;;;21.28;100.00;100494.00;4926918;29;20902;-80
2023/07/02 05:24:38;;;;;;;14.38;6.30;;;;;;;21.29;100.00;100485.03;4916407;29;20058;-79
2023/07/02 05:27:05;;;;;;;16.13;6.40;;;;;;;21.39;100.00;100480.09;4950238;28;20050;-80
2023/07/02 05:29:33;;;;;;;15.05;5.75;;;;;;;21.61;100.00;100485.34;4937328;29;20058;-80
2023/07/02 05:32:00;;;;;;;12.98;6.30;;;;;;;21.84;100.00;100486.03;4964029;28;20070;-80
2023/07/02 05:34:29;;;;;;;18.17;6.28;;;;;;;22.06;100.00;100483.13;4897010;29;20051;-81
2023/07/02 05:36:56;;;;;;;14.55;6.18;;;;;;;22.02;99.95;100486.91;4930512;29;20055;-81
2023/07/02 05:39:24;;;;;;;13.27;6.25;;;;;;;21.96;98.42;100502.38;4933050;29;20058;-80
2023/07/02 05:41:52;;;;;;;12.77;5.57;;;;;;;22.06;96.75;100494.75;4951028;28;20051;-81
2023/07/02 05:44:19;;;;;;;12.57;5.80;;;;;;;22.34;96.74;100491.56;4932233;29;20063;-82
2023/07/02 05:46:47;;;;;;;15.80;5.63;;;;;;;22.46;92.80;100499.94;4949323;29;20047;-81
2023/07/02 05:49:14;;;;;;;13.48;5.22;;;;;;;22.13;89.95;100504.22;4925918;28;20051;-81
2023/07/02 05:51:42;;;;;;;11.52;5.03;;;;;;;21.66;87.71;100499.38;4949980;28;20058;-81
2023/07/02 05:54:09;;;;;;;8.85;5.05;;;;;;;21.48;87.99;100514.56;4945722;28;20054;-80
2023/07/02 05:56:37;;;;;;;13.55;5.22;;;;;;;21.31;87.42;100509.94;4934257;28;20063;-80
2023/07/02 05:59:04;;;;;;;14.05;4.25;;;;;;;21.22;87.38;100510.38;4954621;28;20051;-80
2023/07/02 06:01:33;;;;;;;16.05;5.72;;;;;;;21.20;86.32;100521.16;4966893;28;20063;-81
2023/07/02 06:04:00;;;;;;;13.00;5.03;;;;;;;21.28;84.91;100525.31;4959835;28;20050;-79
2023/07/02 06:06:28;;;;;;;12.73;4.90;;;;;;;21.37;84.57;100515.00;4910905;28;20047;-80
2023/07/02 06:08:56;;;;;;;13.07;4.22;;;;;;;21.49;83.17;100518.97;4979205;28;20491;-80
2023/07/02 06:11:24;;;;;;;11.43;4.55;;;;;;;21.67;82.29;100516.34;4948333;28;20039;-80
2023/07/02 06:13:51;;;;;;;12.63;4.80;;;;;;;21.66;80.88;100520.84;4928148;29;20062;-80
2023/07/02 06:16:19;;;;;;;16.77;4.88;;;;;;;21.66;80.42;100514.59;4927958;29;20068;-80
2023/07/02 06:18:46;;;;;;;12.68;4.50;;;;;;;21.56;79.06;100519.53;4946696;28;20059;-80
2023/07/02 06:21:13;;;;;;;13.00;4.47;;;;;;;21.21;79.02;100524.75;4922865;28;20467;-80
2023/07/02 06:23:44;;;;;;;8.98;4.55;;;;;;;21.03;79.90;100526.44;4965364;28;20051;-80
2023/07/02 06:26:12;;;;;;;13.02;4.70;;;;;;;20.90;81.69;100528.78;4948133;28;20801;-81
2023/07/02 06:28:39;;;;;;;10.77;5.20;;;;;;;20.57;81.87;100529.31;4921370;29;20054;-81
2023/07/02 06:31:07;;;;;;;10.60;4.57;;;;;;;20.44;83.48;100530.78;4935285;29;20055;-79
2023/07/02 06:33:39;;;;;;;11.57;4.35;;;;;;;20.33;84.42;100530.38;4960066;28;20055;-81
2023/07/02 06:36:07;;;;;;;14.20;5.15;;;;;;;20.13;85.17;100540.13;4898332;28;20403;-82
2023/07/02 06:38:39;;;;;;;14.73;5.00;;;;;;;19.98;86.40;100546.97;4931441;29;20056;-78
2023/07/02 06:41:07;;;;;;;12.13;4.75;;;;;;;19.84;86.75;100535.94;4952074;28;20040;-79
2023/07/02 06:43:35;;;;;;;14.20;5.07;;;;;;;19.76;87.81;100541.59;4940570;28;20498;-79
2023/07/02 06:46:03;;;;;;;12.55;5.57;;;;;;;19.82;87.95;100551.16;4939410;28;20059;-77
2023/07/02 06:48:30;;;;;;;12.60;5.03;;;;;;;19.65;86.34;100546.47;4934293;29;20043;-77
2023/07/02 06:50:58;;;;;;;12.82;4.30;;;;;;;19.48;85.29;100553.31;4911059;28;20047;-77
2023/07/02 06:53:25;;;;;;;14.50;4.80;;;;;;;19.31;85.79;100557.59;4920465;29;20077;-77
2023/07/02 06:55:52;;;;;;;13.65;4.57;;;;;;;19.17;87.05;100558.97;4941028;28;20055;-77
2023/07/02 06:58:20;;;;;;;12.07;4.22;;;;;;;19.14;87.72;100558.22;4940842;28;20382;-76
2023/07/02 07:00:48;;;;;;;9.82;4.07;;;;;;;19.17;87.80;100558.06;4937911;28;20044;-77
2023/07/02 07:03:17;;;;;;;12.70;4.60;;;;;;;19.02;88.94;100559.53;4944550;28;20509;-77
2023/07/02 07:05:45;;;;;;;12.00;4.53;;;;;;;18.89;89.89;100570.66;4968939;28;20043;-78
2023/07/02 07:08:12;;;;;;;10.82;3.70;;;;;;;18.70;90.73;100581.06;4913949;28;20680;-78
2023/07/02 07:10:40;;;;;;;13.02;4.13;;;;;;;18.42;92.14;100581.13;4939270;28;20054;-78
2023/07/02 07:13:07;;;;;;;11.77;4.18;;;;;;;18.07;93.65;100582.28;4961098;28;20499;-78
2023/07/02 07:15:38;;;;;;;11.90;4.43;;;;;;;17.88;95.59;100590.88;4933812;28;20059;-77
2023/07/02 07:18:08;;;;;;;11.55;3.80;;;;;;;17.94;97.27;100592.50;4941760;28;20040;-77
2023/07/02 07:20:40;;;;;;;9.45;3.85;;;;;;;18.05;96.98;100587.69;4946147;29;20537;-78
2023/07/02 07:23:08;;;;;;;13.30;3.80;;;;;;;18.08;97.05;100592.03;4884491;29;20054;-77
2023/07/02 07:25:36;;;;;;;11.15;3.47;;;;;;;18.17;95.36;100602.41;4931780;29;20396;-77
2023/07/02 07:28:03;;;;;;;13.15;3.80;;;;;;;18.20;94.11;100606.78;4919509;28;20062;-77
2023/07/02 07:30:31;;;;;;;9.27;3.55;;;;;;;18.24;91.91;100608.41;4921885;29;20051;-77
2023/07/02 07:33:00;;;;;;;6.65;2.80;;;;;;;18.31;91.19;100602.81;4949434;28;20058;-77
2023/07/02 07:35:27;;;;;;;10.52;3.13;;;;;;;18.26;92.12;100607.47;4949174;29;20062;-78
2023/07/02 07:37:55;;;;;;;9.23;3.78;;;;;;;18.11;92.21;100602.63;4929933;28;20048;-78
2023/07/02 07:40:22;;;;;;;10.68;3.25;;;;;;;18.14;93.15;100605.16;4932419;28;20059;-77
2023/07/02 07:42:49;;;;;;;8.73;3.17;;;;;;;18.31;93.88;100609.97;4926042;28;20059;-77
2023/07/02 07:45:17;;;;;;;5.65;2.75;;;;;;;18.49;92.56;100608.50;4914524;29;20490;-77
2023/07/02 07:47:45;;;;;;;10.65;3.28;;;;;;;18.58;91.29;100608.19;4933741;28;20051;-77
2023/07/02 07:50:13;;;;;;;10.43;2.97;;;;;;;18.63;90.73;100605.34;4933716;29;20483;-77
2023/07/02 07:52:42;;;;;;;7.95;3.35;;;;;;;18.72;90.85;100606.84;4942589;29;20047;-77
2023/07/02 07:55:10;;;;;;;10.43;3.13;;;;;;;18.78;90.10;100610.16;4901300;28;20050;-78
2023/07/02 07:57:38;;;;;;;12.75;3.20;;;;;;;18.75;87.04;100606.72;4935246;29;20490;-77
2023/07/02 08:00:12;;;;;;;8.40;2.80;;;;;;;18.63;85.86;100622.22;4922922;28;20067;-77
2023/07/02 08:02:49;;;;;;;13.05;2.42;;;;;;;18.64;85.67;100621.31;4946064;28;20058;-78
2023/07/02 08:05:17;;;;;;;8.27;2.78;;;;;;;18.66;84.56;100619.47;4922998;28;21616;-77
2023/07/02 08:07:45;;;;;;;5.53;2.72;;;;;;;18.75;84.28;100618.28;4970008;28;20047;-77
2023/07/02 08:10:13;;;;;;;7.45;2.22;;;;;;;18.75;82.47;100609.38;4876282;28;20043;-78
2023/07/02 08:12:41;;;;;;;6.68;2.63;;;;;;;18.76;81.86;100611.16;4951585;28;20056;-78
2023/07/02 08:15:08;;;;;;;7.15;2.67;;;;;;;18.72;84.43;100617.53;4922167;28;20078;-77
2023/07/02 08:17:37;;;;;;;11.75;3.08;;;;;;;18.56;84.10;100631.34;4960204;28;20043;-77
2023/07/02 08:20:09;;;;;;;6.38;2.95;;;;;;;18.48;84.02;100634.28;4938776;28;20051;-78
2023/07/02 08:22:40;;;;;;;8.27;2.40;;;;;;;18.55;84.03;100629.63;4931869;29;20058;-77
2023/07/02 08:25:08;;;;;;;7.85;2.80;;;;;;;18.67;84.01;100623.00;4903831;28;20039;-77
2023/07/02 08:27:35;;;;;;;8.65;3.00;;;;;;;18.76;84.08;100628.03;4936798;28;20055;-77
2023/07/02 08:30:03;;;;;;;8.57;2.40;;;;;;;18.78;83.41;100627.97;4938629;28;20047;-77
2023/07/02 08:32:32;;;;;;;9.45;2.45;;;;;;;18.83;84.72;100626.94;4955110;28;20051;-80
2023/07/02 08:35:00;;;;;;;4.95;2.70;;;;;;;18.95;84.05;100628.28;4946492;28;20062;-78
2023/07/02 08:37:27;;;;;;;6.18;2.40;;;;;;;18.92;83.41;100628.38;4941462;28;20067;-79
2023/07/02 08:39:55;;;;;;;9.07;2.83;;;;;;;18.78;82.48;100642.19;4945397;28;20055;-78
2023/07/02 08:42:22;;;;;;;8.13;2.83;;;;;;;18.62;82.48;100648.97;4909498;28;20051;-79
2023/07/02 08:44:53;;;;;;;12.88;3.33;;;;;;;18.24;85.31;100657.31;4956574;28;20062;-78
2023/07/02 08:47:21;;;;;;;7.22;2.55;;;;;;;18.02;86.13;100654.44;4937124;29;20078;-78
2023/07/02 08:49:49;;;;;;;7.75;2.25;;;;;;;17.86;86.59;100664.69;4921485;29;20055;-77
2023/07/02 08:52:17;;;;;;;7.45;3.00;;;;;;;17.76;88.40;100667.63;4943151;29;20423;-77
2023/07/02 08:54:44;;;;;;;7.47;2.83;;;;;;;17.69;89.95;100672.25;4942489;29;20054;-78
2023/07/02 08:57:12;;;;;;;5.95;2.60;;;;;;;17.64;91.87;100672.41;4885829;29;20047;-78
2023/07/02 08:59:40;;;;;;;10.98;3.22;;;;;;;17.64;92.18;100682.19;4975338;28;20055;-78
2023/07/02 09:02:07;;;;;;;5.63;2.60;;;;;;;17.62;93.08;100666.25;4908266;29;20063;-78
2023/07/02 09:04:34;;;;;;;13.45;3.83;;;;;;;17.68;94.56;100671.41;4958300;28;20062;-78
2023/07/02 09:07:08;;;;;;;8.40;3.20;;;;;;;17.81;95.95;100674.59;4946898;29;20062;-78
2023/07/02 09:09:50;;;;;;;8.35;2.97;;;;;;;18.00;97.14;100669.59;4961196;28;20055;-78
2023/07/02 09:12:28;;;;;;;8.85;2.83;;;;;;;18.20;96.82;100671.63;4906962;28;20047;-78
2023/07/02 09:15:06;;;;;;;9.65;3.45;;;;;;;18.45;94.57;100681.53;4949531;29;20069;-78
2023/07/02 09:17:36;;;;;;;7.53;2.70;;;;;;;18.55;90.33;100677.66;4933479;28;20066;-78
2023/07/02 09:20:08;;;;;;;12.32;3.78;;;;;;;18.61;91.88;100687.25;4946597;28;20051;-78
2023/07/02 09:22:35;;;;;;;12.07;2.60;;;;;;;18.75;92.49;100682.34;4967802;28;20546;-79
2023/07/02 09:25:03;;;;;;;7.43;2.67;;;;;;;18.90;91.35;100678.28;4930823;29;20051;-78
2023/07/02 09:27:39;;;;;;;7.40;2.50;;;;;;;18.98;88.57;100686.03;4909109;28;20476;-78
2023/07/02 09:30:07;;;;;;;10.23;3.28;;;;;;;18.95;87.96;100670.16;4924657;29;20047;-80
2023/07/02 09:32:35;;;;;;;12.68;2.60;;;;;;;18.78;87.77;100678.69;4933010;28;20109;-80
2023/07/02 09:35:04;;;;;;;9.23;2.58;;;;;;;18.74;88.21;100677.91;4941011;29;20066;-78
2023/07/02 09:37:32;;;;;;;9.80;2.35;;;;;;;18.85;86.79;100688.28;4940447;29;20062;-78
2023/07/02 09:40:01;;;;;;;8.57;2.47;;;;;;;19.03;85.77;100678.75;4941298;28;20058;-78
2023/07/02 09:42:29;;;;;;;8.48;2.45;;;;;;;19.16;83.66;100673.88;4910947;28;20047;-79
2023/07/02 09:44:58;;;;;;;6.68;1.90;;;;;;;19.15;81.24;100677.44;4952461;28;20055;-79
2023/07/02 09:47:27;;;;;;;9.73;1.92;;;;;;;19.09;79.88;100675.88;4938621;28;20506;-80
2023/07/02 09:50:05;;;;;;;8.32;2.13;;;;;;;18.96;75.25;100680.78;4947667;28;20411;-78
2023/07/02 09:52:34;;;;;;;4.65;1.67;;;;;;;18.84;74.38;100687.38;4945013;29;20055;-79
2023/07/02 09:55:03;;;;;;;3.60;1.70;;;;;;;18.77;76.60;100680.50;4945471;29;20048;-78
2023/07/02 09:57:31;;;;;;;6.72;2.00;;;;;;;18.86;76.91;100680.19;4904556;28;20054;-78
2023/07/02 10:00:00;;;;;;;5.20;2.00;;;;;;;19.02;77.06;100680.56;4926642;29;20044;-78
2023/07/02 10:02:32;;;;;;;3.85;1.75;;;;;;;19.00;72.45;100673.53;4922380;28;20066;-78
2023/07/02 10:05:00;;;;;;;9.85;2.38;;;;;;;18.97;73.49;100685.19;4945514;29;20054;-78
2023/07/02 10:07:34;;;;;;;4.97;1.77;;;;;;;19.07;72.62;100686.63;4932736;29;20503;-79
2023/07/02 10:10:02;;;;;;;8.75;2.30;;;;;;;19.07;74.74;100678.63;4955723;28;20052;-78
2023/07/02 10:12:30;;;;;;;6.18;2.40;;;;;;;19.16;73.86;100684.56;4905999;28;20058;-78
2023/07/02 10:14:58;;;;;;;4.68;1.77;;;;;;;19.36;70.51;100681.19;4933704;29;20051;-78
2023/07/02 10:17:34;;;;;;;4.88;1.70;;;;;;;19.57;68.51;100677.72;4974965;28;20790;-79
2023/07/02 10:20:08;;;;;;;7.35;2.00;;;;;;;19.72;69.21;100683.44;4952661;28;20096;-79
2023/07/02 10:22:53;;;;;;;6.75;1.90;;;;;;;19.80;66.71;100681.38;4947156;29;20051;-79
2023/07/02 10:25:37;;;;;;;9.45;1.70;;;;;;;19.98;68.31;100685.13;4947687;29;20051;-78
2023/07/02 10:28:19;;;;;;;6.07;2.25;;;;;;;20.14;67.33;100680.94;4951503;29;20051;-79
2023/07/02 10:30:47;;;;;;;8.35;2.03;;;;;;;20.23;68.45;100687.75;4913499;29;20044;-78
2023/07/02 10:33:17;;;;;;;4.00;1.60;;;;;;;20.38;62.32;100694.28;4940525;28;20435;-79
2023/07/02 10:35:48;;;;;;;5.57;1.60;;;;;;;20.40;61.96;100681.72;4955021;28;20046;-78
2023/07/02 10:38:26;;;;;;;4.10;1.90;;;;;;;20.28;60.96;100692.91;4966178;28;20051;-79
2023/07/02 10:40:58;;;;;;;11.30;2.80;;;;;;;20.07;65.18;100703.50;4965530;28;20047;-79
2023/07/02 10:43:28;;;;;;;5.20;1.50;;;;;;;20.03;64.80;100700.06;4946243;29;20339;-79
2023/07/02 10:46:02;;;;;;;4.72;1.35;;;;;;;20.18;64.93;100711.97;4906202;28;20051;-78
2023/07/02 10:48:30;;;;;;;4.15;1.58;;;;;;;20.11;62.32;100705.13;4931119;29;20063;-78
2023/07/02 10:50:58;;;;;;;5.78;1.83;;;;;;;20.08;60.28;100718.63;4938402;28;20051;-79
2023/07/02 10:53:26;;;;;;;5.18;1.85;;;;;;;20.06;62.87;100717.81;4949054;29;20062;-78
2023/07/02 10:55:59;;;;;;;7.82;2.13;;;;;;;20.05;65.43;100713.38;4933430;29;20066;-79
2023/07/02 10:58:26;;;;;;;7.78;2.60;;;;;;;20.12;67.68;100722.06;4939758;28;20046;-78
2023/07/02 11:00:54;;;;;;;6.57;2.17;;;;;;;20.30;68.37;100731.16;4921851;28;20043;-80
2023/07/02 11:03:24;;;;;;;9.70;1.65;;;;;;;20.43;62.22;100717.25;4923143;29;20058;-79
2023/07/02 11:05:53;;;;;;;4.68;1.85;;;;;;;20.49;64.80;100724.19;4937502;28;20059;-81
2023/07/02 11:08:23;;;;;;;7.65;2.55;;;;;;;20.56;66.92;100727.47;4932014;29;20474;-78
2023/07/02 11:10:50;;;;;;;11.20;3.08;;;;;;;20.54;68.60;100726.66;4950084;29;20407;-78
2023/07/02 11:13:19;;;;;;;7.30;2.17;;;;;;;20.55;67.86;100731.94;4936465;28;20116;-78
2023/07/02 11:15:47;;;;;;;6.38;1.85;;;;;;;20.37;62.17;100730.00;4922312;28;20047;-79
2023/07/02 11:18:17;;;;;;;6.50;2.10;;;;;;;20.17;65.60;100744.13;4933202;28;20517;-78
2023/07/02 11:20:46;;;;;;;5.25;1.77;;;;;;;20.08;64.37;100742.72;4967983;28;20070;-79